Time;durP1;ratioP1;P1;durP2;ratioP2;P2;SDS_P1;SDS_P2;PMS_P1;PMS_P2;Temp;Humidity;BMP_temperature;BMP_pressure;BME280_temperature;BME280_humidity;BME280_pressure;Samples;Min_cycle;Max_cycle;Signal;HPM_P1;HPM_P2
2022/01/02 00:01:20;;;;;;;1999.90;999.90;;;12.30;82.80;;;;;;4991556;28;20302;-81
2022/01/02 00:03:52;;;;;;;1999.90;999.90;;;12.30;82.80;;;;;;4992624;28;20034;-81
2022/01/02 00:06:23;;;;;;;1999.90;999.90;;;12.30;82.80;;;;;;4990116;28;20412;-81
2022/01/02 00:08:50;;;;;;;;;;;12.30;82.80;;;;;;4992773;28;20035;-81
2022/01/02 00:11:16;;;;;;;1999.90;999.90;;;12.30;82.80;;;;;;5011469;28;19920;-81
2022/01/02 00:13:46;;;;;;;1999.90;999.90;;;12.30;82.70;;;;;;4984956;28;20384;-81
2022/01/02 00:16:16;;;;;;;1999.90;999.90;;;12.30;82.60;;;;;;4968848;28;20031;-81
2022/01/02 00:18:49;;;;;;;1999.90;999.90;;;12.30;82.60;;;;;;4971834;28;20039;-81
2022/01/02 00:21:17;;;;;;;1999.90;999.90;;;12.30;82.60;;;;;;4973821;28;20039;-81
2022/01/02 00:26:44;;;;;;;1999.90;999.90;;;12.30;82.60;;;;;;4952489;28;20100;-81
2022/01/02 00:29:11;;;;;;;1999.90;999.90;;;12.30;82.60;;;;;;4973418;28;20035;-81
2022/01/02 00:31:38;;;;;;;1999.90;999.90;;;12.30;82.60;;;;;;4985077;28;20034;-81
2022/01/02 00:34:04;;;;;;;1999.90;999.90;;;12.30;82.70;;;;;;4992022;28;20030;-81
2022/01/02 00:36:31;;;;;;;1999.90;999.90;;;12.30;82.60;;;;;;4991046;28;20037;-81
2022/01/02 00:38:57;;;;;;;1999.90;999.90;;;12.30;82.60;;;;;;4994170;28;20053;-81
2022/01/02 00:41:26;;;;;;;1999.90;999.90;;;12.30;82.60;;;;;;4992415;28;20038;-81
2022/01/02 00:44:00;;;;;;;1999.90;999.90;;;12.30;82.60;;;;;;4990880;28;20023;-81
2022/01/02 00:46:26;;;;;;;1999.90;999.90;;;12.30;82.60;;;;;;4991775;28;20404;-81
2022/01/02 00:48:54;;;;;;;1999.90;999.90;;;12.40;82.70;;;;;;4989779;28;20022;-82
2022/01/02 00:51:29;;;;;;;1999.90;999.90;;;12.30;82.60;;;;;;4991929;28;20407;-81
2022/01/02 00:53:56;;;;;;;1999.90;999.90;;;12.30;82.60;;;;;;4993040;28;20042;-81
2022/01/02 00:56:22;;;;;;;1999.90;999.90;;;12.40;82.70;;;;;;4991799;28;20054;-81
2022/01/02 00:58:54;;;;;;;1999.90;999.90;;;12.40;82.70;;;;;;4972935;28;20418;-81
2022/01/02 01:01:23;;;;;;;1999.90;999.90;;;12.30;82.60;;;;;;4972832;28;20053;-81
2022/01/02 01:03:52;;;;;;;1999.90;999.90;;;12.40;82.80;;;;;;4990920;28;20049;-80
2022/01/02 01:06:18;;;;;;;1999.90;999.90;;;12.40;82.70;;;;;;4991950;28;20030;-80
2022/01/02 01:08:44;;;;;;;1999.90;999.90;;;12.30;82.60;;;;;;4988924;28;20038;-80
2022/01/02 01:11:11;;;;;;;1999.90;999.90;;;12.30;82.60;;;;;;4991840;28;20030;-80
2022/01/02 01:13:37;;;;;;;1999.90;999.90;;;12.30;82.60;;;;;;4972815;28;20033;-80
2022/01/02 01:16:03;;;;;;;1999.90;999.90;;;12.30;82.60;;;;;;4990851;28;20042;-80
2022/01/02 01:18:30;;;;;;;1999.90;999.90;;;12.30;82.60;;;;;;4990274;28;20030;-80
2022/01/02 01:20:56;;;;;;;1999.90;999.90;;;12.30;82.60;;;;;;4975901;28;20053;-80
2022/01/02 01:23:22;;;;;;;1999.90;999.90;;;12.30;82.70;;;;;;4991174;28;20041;-80
2022/01/02 01:25:48;;;;;;;1999.90;999.90;;;12.20;82.60;;;;;;4991198;28;20030;-80
2022/01/02 01:28:15;;;;;;;1999.90;999.90;;;12.30;82.60;;;;;;4991018;28;20061;-80
2022/01/02 01:30:41;;;;;;;1999.90;999.90;;;12.30;82.70;;;;;;4990635;28;20511;-80
2022/01/02 01:33:07;;;;;;;1999.90;999.90;;;12.20;82.70;;;;;;4992745;28;20027;-80
2022/01/02 01:35:34;;;;;;;1999.90;999.90;;;12.20;82.80;;;;;;4991126;28;20033;-80
2022/01/02 01:38:01;;;;;;;1999.90;999.90;;;12.10;82.70;;;;;;4971971;28;20475;-80
2022/01/02 01:40:34;;;;;;;1999.90;999.90;;;12.10;82.70;;;;;;4989844;28;20039;-80
2022/01/02 01:43:02;;;;;;;1999.90;999.90;;;12.10;83.50;;;;;;4988776;28;20095;-80
2022/01/02 01:45:29;;;;;;;1999.90;999.90;;;12.10;82.80;;;;;;4990893;28;20034;-80
2022/01/02 01:47:57;;;;;;;1999.90;999.90;;;12.10;82.80;;;;;;4990886;28;20471;-80
2022/01/02 01:50:26;;;;;;;1999.90;999.90;;;12.10;82.70;;;;;;4990966;28;20030;-80
2022/01/02 01:52:52;;;;;;;1999.90;999.90;;;12.10;82.70;;;;;;4972330;28;20022;-80
2022/01/02 01:55:18;;;;;;;1999.90;999.90;;;12.10;82.70;;;;;;4989716;28;20037;-80
2022/01/02 01:57:44;;;;;;;1999.90;999.90;;;12.10;82.70;;;;;;4991025;28;20050;-80
2022/01/02 02:00:14;;;;;;;1999.90;999.90;;;12.10;82.70;;;;;;4991017;28;20046;-80
2022/01/02 02:02:41;;;;;;;1999.90;999.90;;;12.10;82.70;;;;;;4990387;28;20026;-80
2022/01/02 02:05:07;;;;;;;1999.90;999.90;;;12.10;82.80;;;;;;4990868;28;20495;-80
2022/01/02 02:07:44;;;;;;;1999.90;999.90;;;12.10;82.80;;;;;;4989675;28;20399;-80
2022/01/02 02:10:27;;;;;;;1999.90;999.90;;;12.00;82.80;;;;;;4990804;28;20035;-80
2022/01/02 02:12:54;;;;;;;1999.90;999.90;;;12.10;82.90;;;;;;4975102;28;20034;-80
2022/01/02 02:15:21;;;;;;;1999.90;999.90;;;12.10;82.90;;;;;;4990135;28;20467;-79
2022/01/02 02:17:48;;;;;;;1999.90;999.90;;;12.10;82.80;;;;;;4990763;28;20026;-80
2022/01/02 02:20:19;;;;;;;1999.90;999.90;;;12.10;82.80;;;;;;4990381;28;20054;-80
2022/01/02 02:22:48;;;;;;;1999.90;999.90;;;12.10;82.70;;;;;;4987375;28;20037;-80
2022/01/02 02:25:15;;;;;;;1999.90;999.90;;;12.20;82.80;;;;;;4991154;28;20027;-80
2022/01/02 02:27:49;;;;;;;1999.90;999.90;;;12.20;82.70;;;;;;4989716;28;20030;-80
2022/01/02 02:30:15;;;;;;;1999.90;999.90;;;12.10;82.70;;;;;;4988012;28;20023;-80
2022/01/02 02:32:41;;;;;;;1999.90;999.90;;;12.20;82.80;;;;;;4990415;28;20045;-80
2022/01/02 02:35:08;;;;;;;1999.90;999.90;;;12.20;82.70;;;;;;4981921;28;20046;-80
2022/01/02 02:37:34;;;;;;;1999.90;999.90;;;12.20;82.80;;;;;;4990395;28;20037;-80
2022/01/02 02:40:00;;;;;;;1999.90;999.90;;;12.20;82.80;;;;;;4992340;28;20053;-80
2022/01/02 02:42:44;;;;;;;1999.90;999.90;;;12.20;82.70;;;;;;4993624;28;20098;-80
2022/01/02 02:51:02;;;;;;;1999.90;999.90;;;12.20;82.80;;;;;;4998876;28;20050;-80
2022/01/02 02:53:28;;;;;;;1999.90;999.90;;;12.20;82.70;;;;;;4993941;28;20026;-80
2022/01/02 02:55:57;;;;;;;1999.90;999.90;;;12.20;82.70;;;;;;4993743;28;20037;-80
2022/01/02 03:00:59;;;;;;;1999.90;999.90;;;12.20;82.80;;;;;;4992183;28;20058;-80
2022/01/02 03:03:25;;;;;;;1999.90;999.90;;;12.20;82.80;;;;;;4995573;28;20036;-80
2022/01/02 03:05:51;;;;;;;1999.90;999.90;;;12.20;82.80;;;;;;4992256;28;20458;-80
2022/01/02 03:08:17;;;;;;;1999.90;999.90;;;12.20;82.70;;;;;;4995536;28;20045;-80
2022/01/02 03:10:43;;;;;;;1999.90;999.90;;;12.30;82.80;;;;;;4990640;28;20035;-80
2022/01/02 03:13:09;;;;;;;1999.90;999.90;;;12.30;82.80;;;;;;4960881;28;20042;-80
2022/01/02 03:15:36;;;;;;;1999.90;999.90;;;12.40;82.70;;;;;;5002130;28;20054;-80
2022/01/02 03:18:03;;;;;;;1999.90;999.90;;;12.40;82.70;;;;;;4991230;28;20030;-80
2022/01/02 03:20:29;;;;;;;1999.90;999.90;;;12.50;82.60;;;;;;4980816;28;20395;-80
2022/01/02 03:22:56;;;;;;;1999.90;999.90;;;12.60;82.40;;;;;;4984595;28;20042;-80
2022/01/02 03:25:22;;;;;;;1999.90;999.90;;;12.70;82.30;;;;;;4989330;28;20037;-80
2022/01/02 03:27:48;;;;;;;1999.90;999.90;;;12.80;82.20;;;;;;4976533;28;20027;-80
2022/01/02 03:30:14;;;;;;;1999.90;999.90;;;12.90;82.00;;;;;;4974232;28;20026;-80
2022/01/02 03:32:40;;;;;;;1999.90;999.90;;;13.00;81.90;;;;;;4987339;28;20041;-80
2022/01/02 03:35:07;;;;;;;1999.90;999.90;;;13.10;81.80;;;;;;4983756;28;20045;-80
2022/01/02 03:37:33;;;;;;;1999.90;999.90;;;13.20;81.70;;;;;;4979736;28;20483;-80
2022/01/02 03:40:00;;;;;;;1999.90;999.90;;;13.20;81.70;;;;;;4993317;28;20058;-80
2022/01/02 03:42:26;;;;;;;1999.90;999.90;;;13.30;81.50;;;;;;4992460;28;20463;-80
2022/01/02 03:44:52;;;;;;;1999.90;999.90;;;13.40;81.50;;;;;;4994587;28;20046;-80
2022/01/02 03:47:18;;;;;;;1999.90;999.90;;;13.40;81.40;;;;;;4992611;28;20030;-80
2022/01/02 03:49:44;;;;;;;1999.90;999.90;;;13.40;81.40;;;;;;4990730;28;20395;-80
2022/01/02 03:52:11;;;;;;;1999.90;999.90;;;13.50;81.40;;;;;;4992405;28;20039;-80
2022/01/02 03:54:37;;;;;;;1999.90;999.90;;;13.50;81.30;;;;;;4992885;28;20038;-80
2022/01/02 03:57:03;;;;;;;1999.90;999.90;;;13.50;81.30;;;;;;4994362;28;20051;-79
2022/01/02 03:59:29;;;;;;;1999.90;999.90;;;13.60;81.30;;;;;;4992807;28;20030;-80
2022/01/02 04:01:55;;;;;;;1999.90;999.90;;;13.50;81.20;;;;;;4992105;28;20046;-80
2022/01/02 04:04:22;;;;;;;1999.90;999.90;;;13.50;81.20;;;;;;4992540;28;20384;-80
2022/01/02 04:06:48;;;;;;;1999.90;999.90;;;13.50;81.20;;;;;;4992897;28;20034;-80
2022/01/02 04:09:14;;;;;;;1999.90;999.90;;;13.50;81.30;;;;;;5010171;28;20038;-80
2022/01/02 04:11:40;;;;;;;1999.90;999.90;;;13.60;81.30;;;;;;4992527;28;20034;-80
2022/01/02 04:14:06;;;;;;;1999.90;999.90;;;13.50;81.30;;;;;;4992203;28;20045;-80
2022/01/02 04:16:32;;;;;;;1999.90;999.90;;;13.60;81.30;;;;;;4991485;28;20396;-80
2022/01/02 04:18:58;;;;;;;1999.90;999.90;;;13.50;81.30;;;;;;4992686;28;20034;-80
2022/01/02 04:21:24;;;;;;;1999.90;999.90;;;13.60;81.30;;;;;;4992307;28;20034;-80
2022/01/02 04:23:50;;;;;;;1999.90;999.90;;;13.50;81.30;;;;;;4993138;28;20383;-80
2022/01/02 04:26:17;;;;;;;1999.90;999.90;;;13.60;81.30;;;;;;4974559;28;20503;-80
2022/01/02 04:28:43;;;;;;;1999.90;999.90;;;13.60;81.30;;;;;;4992500;28;20037;-80
2022/01/02 04:31:10;;;;;;;1999.90;999.90;;;13.60;81.30;;;;;;4990237;28;20035;-80
2022/01/02 04:33:36;;;;;;;1999.90;999.90;;;13.60;81.30;;;;;;4991254;28;20102;-80
2022/01/02 04:36:03;;;;;;;1999.90;999.90;;;13.60;81.30;;;;;;4992985;28;20027;-80
2022/01/02 04:38:29;;;;;;;1999.90;999.90;;;13.60;81.30;;;;;;4973135;28;20407;-80
2022/01/02 04:40:55;;;;;;;1999.90;999.90;;;13.60;81.20;;;;;;4991694;28;20069;-80
2022/01/02 04:43:21;;;;;;;1999.90;999.90;;;13.60;81.20;;;;;;4991999;28;20034;-80
2022/01/02 04:45:47;;;;;;;1999.90;999.90;;;13.60;81.20;;;;;;4991550;28;20043;-80
2022/01/02 04:48:13;;;;;;;1999.90;999.90;;;13.60;81.20;;;;;;4989462;28;20046;-80
2022/01/02 04:50:40;;;;;;;1999.90;999.90;;;13.70;81.30;;;;;;4990620;28;20038;-80
2022/01/02 04:53:06;;;;;;;1999.90;999.90;;;13.60;81.30;;;;;;4974144;28;20058;-80
2022/01/02 04:55:32;;;;;;;1999.90;999.90;;;13.70;81.30;;;;;;4991791;28;20477;-80
2022/01/02 04:57:58;;;;;;;1999.90;999.90;;;13.60;81.30;;;;;;4992066;28;20051;-80
2022/01/02 05:00:24;;;;;;;1999.90;999.90;;;13.60;81.30;;;;;;4992154;28;20057;-80
2022/01/02 05:02:52;;;;;;;1999.90;999.90;;;13.60;81.30;;;;;;4984279;28;20034;-79
2022/01/02 05:05:18;;;;;;;1999.90;999.90;;;13.60;81.40;;;;;;4990668;28;20472;-79
2022/01/02 05:07:44;;;;;;;1999.90;999.90;;;13.60;81.50;;;;;;4982788;28;20053;-78
2022/01/02 05:10:10;;;;;;;1999.90;999.90;;;13.50;81.50;;;;;;4991167;28;20033;-79
2022/01/02 05:12:36;;;;;;;1999.90;999.90;;;13.50;81.50;;;;;;4989849;28;20389;-78
2022/01/02 05:15:03;;;;;;;1999.90;999.90;;;13.50;81.60;;;;;;4991559;28;20042;-79
2022/01/02 05:17:29;;;;;;;1999.90;999.90;;;13.50;81.60;;;;;;4990909;28;20030;-79
2022/01/02 05:19:55;;;;;;;1999.90;999.90;;;13.50;81.60;;;;;;4990922;28;20057;-78
2022/01/02 05:22:21;;;;;;;1999.90;999.90;;;13.40;81.60;;;;;;4972603;28;20050;-79
2022/01/02 05:24:48;;;;;;;1999.90;999.90;;;13.40;81.60;;;;;;4989004;28;20026;-79
2022/01/02 05:27:14;;;;;;;1999.90;999.90;;;13.40;81.60;;;;;;4978110;28;20030;-79
2022/01/02 05:29:40;;;;;;;1999.90;999.90;;;13.40;81.60;;;;;;4990566;28;20022;-80
2022/01/02 05:32:06;;;;;;;1999.90;999.90;;;13.40;82.50;;;;;;4990007;28;20034;-80
2022/01/02 05:34:32;;;;;;;1999.90;999.90;;;13.30;81.70;;;;;;4990490;28;20030;-80
2022/01/02 05:36:58;;;;;;;1999.90;999.90;;;13.30;81.80;;;;;;4990994;28;20034;-79
2022/01/02 05:39:24;;;;;;;1999.90;999.90;;;13.30;81.80;;;;;;4989941;28;20033;-79
2022/01/02 05:41:51;;;;;;;1999.90;999.90;;;13.20;81.80;;;;;;4991894;28;20042;-80
2022/01/02 05:44:17;;;;;;;1999.90;999.90;;;13.30;81.90;;;;;;4969975;28;20045;-80
2022/01/02 05:46:43;;;;;;;1999.90;999.90;;;13.20;81.90;;;;;;4957701;28;20042;-79
2022/01/02 05:49:10;;;;;;;1999.90;999.90;;;13.20;82.00;;;;;;4982692;28;20030;-79
2022/01/02 05:51:36;;;;;;;1999.90;999.90;;;13.30;82.00;;;;;;4998415;28;20051;-79
2022/01/02 05:54:03;;;;;;;1999.90;999.90;;;13.20;82.00;;;;;;4999178;28;20490;-80
2022/01/02 05:56:29;;;;;;;1999.90;999.90;;;13.20;82.00;;;;;;4998906;28;20069;-80
2022/01/02 05:58:55;;;;;;;1999.90;999.90;;;13.20;82.00;;;;;;4998295;28;20482;-80
2022/01/02 06:01:21;;;;;;;1999.90;999.90;;;13.30;82.00;;;;;;4998892;28;20050;-79
2022/01/02 06:03:47;;;;;;;1999.90;999.90;;;13.20;82.00;;;;;;4998905;28;20038;-79
2022/01/02 06:06:13;;;;;;;1999.90;999.90;;;13.30;82.00;;;;;;4999936;28;20030;-80
2022/01/02 06:08:39;;;;;;;1999.90;999.90;;;13.30;82.00;;;;;;4981073;28;20061;-80
2022/01/02 06:11:05;;;;;;;1999.90;999.90;;;13.30;82.00;;;;;;4998706;28;20415;-79
2022/01/02 06:13:32;;;;;;;1999.90;999.90;;;13.30;82.00;;;;;;4999525;28;20029;-81
2022/01/02 06:15:58;;;;;;;1999.90;999.90;;;13.30;82.00;;;;;;4986351;28;20103;-81
2022/01/02 06:18:24;;;;;;;1999.90;999.90;;;13.30;82.10;;;;;;5002519;28;20046;-79
2022/01/02 06:20:50;;;;;;;1999.90;999.90;;;13.30;82.10;;;;;;5003094;28;20045;-78
2022/01/02 06:23:16;;;;;;;1999.90;999.90;;;13.20;82.10;;;;;;5002862;28;20042;-79
2022/01/02 06:25:43;;;;;;;1999.90;999.90;;;13.30;82.20;;;;;;5002341;28;20398;-79
2022/01/02 06:28:09;;;;;;;1999.90;999.90;;;13.30;82.20;;;;;;4985940;28;20053;-79
2022/01/02 06:30:35;;;;;;;1999.90;999.90;;;13.20;82.10;;;;;;5000678;28;20034;-79
2022/01/02 06:33:02;;;;;;;1999.90;999.90;;;13.30;82.20;;;;;;5003751;28;20037;-79
2022/01/02 06:35:32;;;;;;;1999.90;999.90;;;13.30;82.20;;;;;;5003585;28;20026;-79
2022/01/02 06:37:59;;;;;;;1999.90;999.90;;;13.30;82.10;;;;;;4984822;28;20033;-80
2022/01/02 06:40:25;;;;;;;1999.90;999.90;;;13.30;82.10;;;;;;5000604;28;20029;-80
2022/01/02 06:42:51;;;;;;;1999.90;999.90;;;13.40;82.20;;;;;;5001661;28;20049;-80
2022/01/02 06:45:18;;;;;;;1999.90;999.90;;;13.40;82.20;;;;;;4986013;28;20026;-80
2022/01/02 06:47:44;;;;;;;1999.90;999.90;;;13.40;82.20;;;;;;4986122;28;20034;-80
2022/01/02 06:50:12;;;;;;;1999.90;999.90;;;13.40;82.20;;;;;;5002411;28;20038;-80
2022/01/02 06:52:38;;;;;;;1999.90;999.90;;;13.40;82.20;;;;;;5001435;28;20027;-79
2022/01/02 06:55:05;;;;;;;1999.90;999.90;;;13.40;82.20;;;;;;5002096;28;20053;-80
2022/01/02 06:57:31;;;;;;;1999.90;999.90;;;13.40;82.20;;;;;;4993769;28;20053;-80
2022/01/02 06:59:57;;;;;;;1999.90;999.90;;;13.50;82.20;;;;;;4994904;28;20405;-80
2022/01/02 07:02:23;;;;;;;1999.90;999.90;;;13.50;82.20;;;;;;4992912;28;20050;-80
2022/01/02 07:04:49;;;;;;;1999.90;999.90;;;13.50;82.20;;;;;;4993384;28;20027;-80
2022/01/02 07:07:15;;;;;;;1999.90;999.90;;;13.50;82.20;;;;;;4992848;28;20354;-80
2022/01/02 07:09:41;;;;;;;1999.90;999.90;;;13.60;82.20;;;;;;4993286;28;20022;-80
2022/01/02 07:12:07;;;;;;;1999.90;999.90;;;13.60;82.20;;;;;;4994447;28;20038;-80
2022/01/02 07:14:34;;;;;;;1999.90;999.90;;;13.60;82.20;;;;;;4993769;28;20034;-80
2022/01/02 07:17:00;;;;;;;1999.90;999.90;;;13.60;82.30;;;;;;4969121;28;20409;-80
2022/01/02 07:19:26;;;;;;;1999.90;999.90;;;13.60;82.30;;;;;;4980019;28;20027;-80
2022/01/02 07:21:53;;;;;;;1999.90;999.90;;;13.60;82.30;;;;;;4990467;28;20038;-80
2022/01/02 07:24:19;;;;;;;1999.90;999.90;;;13.60;82.30;;;;;;4990556;28;20031;-80
2022/01/02 07:26:45;;;;;;;1999.90;999.90;;;13.60;82.40;;;;;;4994203;28;20050;-81
2022/01/02 07:29:11;;;;;;;1999.90;999.90;;;13.60;82.40;;;;;;4996168;28;20022;-81
2022/01/02 07:31:37;;;;;;;1999.90;999.90;;;13.60;82.40;;;;;;4992387;28;20057;-83
2022/01/02 07:34:04;;;;;;;1999.90;999.90;;;13.60;82.40;;;;;;4992500;28;20026;-83
2022/01/02 07:36:30;;;;;;;1999.90;999.90;;;13.70;82.50;;;;;;4992415;28;20033;-84
2022/01/02 07:38:57;;;;;;;1999.90;999.90;;;13.60;82.40;;;;;;4993889;28;20026;-83
2022/01/02 07:41:23;;;;;;;1999.90;999.90;;;13.70;82.50;;;;;;4987708;28;20403;-81
2022/01/02 07:43:49;;;;;;;1999.90;999.90;;;13.70;82.60;;;;;;4968125;28;20031;-81
2022/01/02 07:46:15;;;;;;;1999.90;999.90;;;13.70;82.60;;;;;;4981487;28;20031;-81
2022/01/02 07:48:41;;;;;;;1999.90;999.90;;;13.70;82.60;;;;;;4988142;28;20496;-81
2022/01/02 07:51:08;;;;;;;1999.90;999.90;;;13.70;82.60;;;;;;4979126;28;20039;-82
2022/01/02 07:53:34;;;;;;;1999.90;999.90;;;13.70;82.60;;;;;;4999856;28;20035;-82
2022/01/02 07:56:00;;;;;;;1999.90;999.90;;;13.70;82.60;;;;;;4979806;28;20050;-80
2022/01/02 07:58:26;;;;;;;1999.90;999.90;;;13.70;82.60;;;;;;4993528;28;20027;-82
2022/01/02 08:00:52;;;;;;;1999.90;999.90;;;13.70;82.60;;;;;;4986787;28;20412;-80
2022/01/02 08:03:18;;;;;;;1999.90;999.90;;;13.80;82.70;;;;;;4978334;28;20054;-80
2022/01/02 08:05:44;;;;;;;1999.90;999.90;;;13.80;82.70;;;;;;4988575;28;20022;-79
2022/01/02 08:08:10;;;;;;;1999.90;999.90;;;13.80;82.70;;;;;;4984432;28;20031;-80
2022/01/02 08:10:38;;;;;;;1999.90;999.90;;;13.80;82.70;;;;;;4985440;28;20030;-80
2022/01/02 08:13:04;;;;;;;1999.90;999.90;;;13.80;82.70;;;;;;4991185;28;20038;-81
2022/01/02 08:15:32;;;;;;;1999.90;999.90;;;13.80;82.70;;;;;;5005526;28;20039;-81
2022/01/02 08:17:58;;;;;;;1999.90;999.90;;;13.80;82.70;;;;;;4979740;28;20042;-81
2022/01/02 08:20:24;;;;;;;1999.90;999.90;;;13.80;82.70;;;;;;4981176;28;20031;-80
2022/01/02 08:22:50;;;;;;;1999.90;999.90;;;13.80;82.80;;;;;;4995162;28;20051;-82
2022/01/02 08:25:16;;;;;;;1999.90;999.90;;;13.80;82.80;;;;;;4976426;28;20038;-81
2022/01/02 08:27:42;;;;;;;1999.90;999.90;;;13.80;82.80;;;;;;4978045;28;20377;-84
2022/01/02 08:30:09;;;;;;;1999.90;999.90;;;13.80;82.80;;;;;;4988758;28;20042;-80
2022/01/02 08:32:36;;;;;;;1999.90;999.90;;;13.80;82.80;;;;;;4984420;28;20042;-82
2022/01/02 08:35:03;;;;;;;1999.90;999.90;;;13.80;82.80;;;;;;4986494;28;20468;-82
2022/01/02 08:37:29;;;;;;;1999.90;999.90;;;13.80;82.80;;;;;;4984965;28;20044;-83
2022/01/02 08:39:55;;;;;;;1999.90;999.90;;;13.80;82.80;;;;;;4977081;28;20030;-83
2022/01/02 08:42:21;;;;;;;1999.90;999.90;;;13.80;82.80;;;;;;4983535;28;20050;-81
2022/01/02 08:44:47;;;;;;;1999.90;999.90;;;13.80;82.90;;;;;;4990400;28;20357;-81
2022/01/02 08:47:13;;;;;;;1999.90;999.90;;;13.80;82.80;;;;;;4982308;28;20043;-82
2022/01/02 08:49:39;;;;;;;1999.90;999.90;;;13.90;83.00;;;;;;4988868;28;20034;-83
2022/01/02 08:52:05;;;;;;;1999.90;999.90;;;13.80;82.90;;;;;;4988443;28;20030;-86
2022/01/02 08:54:31;;;;;;;1999.90;999.90;;;13.80;82.90;;;;;;4979810;28;20086;-85
2022/01/02 08:56:57;;;;;;;1999.90;999.90;;;13.80;82.90;;;;;;4999776;28;20050;-85
2022/01/02 08:59:24;;;;;;;1999.90;999.90;;;13.90;83.00;;;;;;4998873;28;20037;-86
2022/01/02 09:01:51;;;;;;;1999.90;999.90;;;13.90;83.00;;;;;;4995394;28;20069;-82
2022/01/02 09:04:17;;;;;;;1999.90;999.90;;;13.90;83.00;;;;;;4999893;28;20041;-83
2022/01/02 09:06:43;;;;;;;1999.90;999.90;;;13.90;83.00;;;;;;4998415;28;20034;-81
2022/01/02 09:09:09;;;;;;;1999.90;999.90;;;13.90;83.00;;;;;;4999624;28;20384;-83
2022/01/02 09:11:35;;;;;;;1999.90;999.90;;;13.90;83.00;;;;;;4991609;28;20486;-81
2022/01/02 09:14:02;;;;;;;1999.90;999.90;;;14.00;83.10;;;;;;4994890;28;20042;-82
2022/01/02 09:16:29;;;;;;;1999.90;999.90;;;14.00;83.10;;;;;;4990199;28;20061;-82
2022/01/02 09:18:55;;;;;;;1999.90;999.90;;;14.00;83.10;;;;;;4991770;28;20030;-82
2022/01/02 09:21:21;;;;;;;1999.90;999.90;;;14.00;83.00;;;;;;5019765;28;20038;-84
2022/01/02 09:23:47;;;;;;;1999.90;999.90;;;14.00;83.00;;;;;;4995201;28;20436;-87
2022/01/02 09:26:13;;;;;;;1999.90;999.90;;;14.00;83.10;;;;;;4991783;28;20029;-83
2022/01/02 09:28:40;;;;;;;1999.90;999.90;;;14.00;83.00;;;;;;4994344;28;20046;-81
2022/01/02 09:31:06;;;;;;;1999.90;999.90;;;14.10;83.10;;;;;;5014537;28;20034;-81
2022/01/02 09:33:32;;;;;;;1999.90;999.90;;;14.10;83.10;;;;;;4997948;28;20026;-81
2022/01/02 09:35:58;;;;;;;1999.90;999.90;;;14.10;83.10;;;;;;4997885;28;20037;-85
2022/01/02 09:38:24;;;;;;;1999.90;999.90;;;14.10;83.00;;;;;;5013621;28;20045;-82
2022/01/02 09:40:50;;;;;;;1999.90;999.90;;;14.20;83.10;;;;;;4996860;28;20395;-81
2022/01/02 09:43:17;;;;;;;1999.90;999.90;;;14.20;83.00;;;;;;4996101;28;20042;-81
2022/01/02 09:45:47;;;;;;;1999.90;999.90;;;14.20;83.00;;;;;;5027032;28;20041;-82
2022/01/02 09:48:13;;;;;;;1999.90;999.90;;;14.20;83.00;;;;;;4999417;28;20036;-80
2022/01/02 09:50:39;;;;;;;1999.90;999.90;;;14.20;82.90;;;;;;4992369;28;21656;-81
2022/01/02 09:53:06;;;;;;;1999.90;999.90;;;14.30;83.00;;;;;;4997863;28;20037;-80
2022/01/02 09:55:32;;;;;;;1999.90;999.90;;;14.30;83.00;;;;;;4982046;28;20033;-80
2022/01/02 09:57:59;;;;;;;1999.90;999.90;;;14.30;83.00;;;;;;4997176;28;20506;-83
2022/01/02 10:00:27;;;;;;;1999.90;999.90;;;14.30;83.00;;;;;;4997667;28;20069;-85
2022/01/02 10:03:04;;;;;;;1999.90;999.90;;;14.40;83.00;;;;;;4997307;28;20046;-81
2022/01/02 10:05:49;;;;;;;1999.90;999.90;;;14.40;83.00;;;;;;5010987;28;20046;-81
2022/01/02 10:08:29;;;;;;;1999.90;999.90;;;14.40;83.00;;;;;;4998694;28;20030;-83
2022/01/02 10:10:59;;;;;;;1999.90;999.90;;;14.50;82.90;;;;;;4997958;28;20033;-83
2022/01/02 10:13:40;;;;;;;1999.90;999.90;;;14.50;82.90;;;;;;4996502;28;20022;-84
2022/01/02 10:16:25;;;;;;;;;;;14.50;82.90;;;;;;4998600;28;20042;-86
2022/01/02 10:18:52;;;;;;;1999.90;999.90;;;14.50;82.90;;;;;;5000065;28;20295;-83
2022/01/02 10:21:28;;;;;;;1999.90;999.90;;;14.60;82.80;;;;;;4997819;28;20186;-80
2022/01/02 10:24:21;;;;;;;1999.90;999.90;;;14.60;82.80;;;;;;4999599;28;20033;-80
2022/01/02 10:27:04;;;;;;;1999.90;999.90;;;14.60;82.80;;;;;;4996205;28;20046;-80
2022/01/02 10:29:55;;;;;;;1999.90;999.90;;;14.60;82.70;;;;;;4993610;28;20494;-80
2022/01/02 10:32:39;;;;;;;1999.90;999.90;;;14.60;82.70;;;;;;4992368;28;20517;-83
2022/01/02 10:35:21;;;;;;;1999.90;999.90;;;14.60;82.70;;;;;;4994140;28;20026;-82
2022/01/02 15:20:01;;;;;;;1999.90;999.90;;;14.30;81.00;;;;;;4984186;28;20420;-84
2022/01/02 15:22:27;;;;;;;1999.90;999.90;;;14.30;82.20;;;;;;4972637;28;20035;-82
2022/01/02 15:24:53;;;;;;;1999.90;999.90;;;14.40;82.90;;;;;;4973538;28;22279;-82
2022/01/02 15:27:20;;;;;;;1999.90;999.90;;;14.50;83.00;;;;;;5004500;28;20045;-82
2022/01/02 15:29:46;;;;;;;1999.90;999.90;;;14.70;83.10;;;;;;5005497;28;20027;-82
2022/01/02 15:32:12;;;;;;;1999.90;999.90;;;14.80;83.10;;;;;;4956881;28;20050;-82
2022/01/02 15:34:39;;;;;;;1999.90;999.90;;;14.90;82.90;;;;;;4954395;28;20362;-82
2022/01/02 15:37:05;;;;;;;1999.90;999.90;;;15.00;82.90;;;;;;4987677;28;20042;-82
2022/01/02 15:39:31;;;;;;;1999.90;999.90;;;15.10;82.80;;;;;;4923930;28;20051;-81
2022/01/02 15:41:57;;;;;;;1999.90;999.90;;;15.10;82.80;;;;;;4940392;28;20054;-82
2022/01/02 15:44:24;;;;;;;1999.90;999.90;;;15.20;82.70;;;;;;4953189;28;20047;-84
2022/01/02 15:46:51;;;;;;;1999.90;999.90;;;15.20;82.60;;;;;;4952878;28;20036;-84
2022/01/02 15:49:17;;;;;;;1999.90;999.90;;;15.20;82.60;;;;;;4919736;29;20711;-82
2022/01/02 15:51:43;;;;;;;1999.90;999.90;;;15.30;82.70;;;;;;4965024;28;20028;-81
2022/01/02 15:54:10;;;;;;;1999.90;999.90;;;15.20;82.60;;;;;;4967118;28;20042;-81
2022/01/02 15:56:36;;;;;;;1999.90;999.90;;;15.30;82.60;;;;;;4936048;29;20473;-80
2022/01/02 15:59:02;;;;;;;1999.90;999.90;;;15.30;82.60;;;;;;4934781;29;20418;-81
2022/01/02 16:01:28;;;;;;;1999.90;999.90;;;15.30;82.60;;;;;;4919434;29;20028;-84
2022/01/02 16:03:55;;;;;;;1999.90;999.90;;;15.30;82.60;;;;;;4934501;29;20042;-83
2022/01/02 16:06:21;;;;;;;1999.90;999.90;;;15.30;82.60;;;;;;4953356;28;20028;-83
2022/01/02 16:08:49;;;;;;;1999.90;999.90;;;15.30;82.70;;;;;;4919272;29;20031;-82
2022/01/02 16:11:18;;;;;;;1999.90;999.90;;;15.30;82.50;;;;;;4935809;29;20496;-83
2022/01/02 16:13:45;;;;;;;1999.90;999.90;;;15.30;82.50;;;;;;4935595;29;20047;-83
2022/01/02 16:16:11;;;;;;;1999.90;999.90;;;15.20;82.50;;;;;;4902283;29;20406;-83
2022/01/02 16:18:37;;;;;;;1999.90;999.90;;;15.20;82.50;;;;;;4943063;28;20378;-82
2022/01/02 16:21:03;;;;;;;1999.90;999.90;;;15.20;82.50;;;;;;4941362;28;20042;-81
2022/01/02 16:23:29;;;;;;;1999.90;999.90;;;15.20;82.50;;;;;;4954905;28;20034;-81
2022/01/02 16:25:56;;;;;;;1999.90;999.90;;;15.20;82.50;;;;;;4937208;28;20035;-82
2022/01/02 16:28:22;;;;;;;1999.90;999.90;;;15.20;82.50;;;;;;4953370;28;20050;-81
2022/01/02 16:30:48;;;;;;;1999.90;999.90;;;15.20;82.40;;;;;;4943887;28;20079;-81
2022/01/02 16:33:15;;;;;;;1999.90;999.90;;;15.20;82.50;;;;;;4926175;29;20042;-82
2022/01/02 16:35:42;;;;;;;1999.90;999.90;;;15.20;82.40;;;;;;4908949;29;20039;-82
2022/01/02 16:38:08;;;;;;;1999.90;999.90;;;15.20;82.40;;;;;;4942459;29;20039;-82
2022/01/02 16:40:34;;;;;;;1999.90;999.90;;;15.10;82.40;;;;;;4942749;29;20042;-85
2022/01/02 16:43:00;;;;;;;1999.90;999.90;;;15.20;82.40;;;;;;4941447;29;20035;-85
2022/01/02 16:45:26;;;;;;;1999.90;999.90;;;15.20;82.50;;;;;;4939945;29;20384;-83
2022/01/02 16:47:52;;;;;;;1999.90;999.90;;;15.10;82.40;;;;;;4956874;28;20035;-83
2022/01/02 16:50:18;;;;;;;1999.90;999.90;;;15.10;82.30;;;;;;4922543;29;20043;-84
2022/01/02 16:52:44;;;;;;;1999.90;999.90;;;15.10;82.30;;;;;;4941872;29;20028;-85
2022/01/02 16:55:11;;;;;;;1999.90;999.90;;;15.10;82.30;;;;;;4941127;29;20401;-83